sensor_id;sensor_type;location;lat;lon;timestamp;P1;durP1;ratioP1;P2;durP2;ratioP2
49416;SDS011;35290;39.550;8.786;2023-02-01T00:00:48;46.75;;;25.23;;
49416;SDS011;35290;39.550;8.786;2023-02-01T00:03:13;44.03;;;23.08;;
49416;SDS011;35290;39.550;8.786;2023-02-01T00:05:43;49.53;;;24.13;;
49416;SDS011;35290;39.550;8.786;2023-02-01T00:08:09;47.42;;;25.00;;
49416;SDS011;35290;39.550;8.786;2023-02-01T00:10:35;44.53;;;23.52;;
49416;SDS011;35290;39.550;8.786;2023-02-01T00:13:00;52.58;;;24.65;;
49416;SDS011;35290;39.550;8.786;2023-02-01T00:15:26;50.33;;;26.23;;
49416;SDS011;35290;39.550;8.786;2023-02-01T00:17:55;50.47;;;26.10;;
49416;SDS011;35290;39.550;8.786;2023-02-01T00:20:20;53.90;;;26.55;;
49416;SDS011;35290;39.550;8.786;2023-02-01T00:22:46;39.92;;;21.50;;
49416;SDS011;35290;39.550;8.786;2023-02-01T00:25:11;30.92;;;18.67;;
49416;SDS011;35290;39.550;8.786;2023-02-01T00:27:37;26.23;;;15.63;;
49416;SDS011;35290;39.550;8.786;2023-02-01T00:30:02;26.95;;;14.27;;
49416;SDS011;35290;39.550;8.786;2023-02-01T00:32:28;26.65;;;14.88;;
49416;SDS011;35290;39.550;8.786;2023-02-01T00:34:54;27.13;;;14.60;;
49416;SDS011;35290;39.550;8.786;2023-02-01T00:37:19;25.23;;;12.98;;
49416;SDS011;35290;39.550;8.786;2023-02-01T00:39:45;20.98;;;11.88;;
49416;SDS011;35290;39.550;8.786;2023-02-01T00:42:11;21.73;;;10.27;;
49416;SDS011;35290;39.550;8.786;2023-02-01T00:44:36;17.75;;;8.45;;
49416;SDS011;35290;39.550;8.786;2023-02-01T00:47:02;16.00;;;7.70;;
49416;SDS011;35290;39.550;8.786;2023-02-01T00:49:28;19.38;;;9.02;;
49416;SDS011;35290;39.550;8.786;2023-02-01T00:51:53;20.70;;;10.85;;
49416;SDS011;35290;39.550;8.786;2023-02-01T00:54:19;22.58;;;11.02;;
49416;SDS011;35290;39.550;8.786;2023-02-01T00:56:47;27.23;;;12.02;;
49416;SDS011;35290;39.550;8.786;2023-02-01T00:59:12;26.00;;;12.75;;
49416;SDS011;35290;39.550;8.786;2023-02-01T01:01:38;27.40;;;13.98;;
49416;SDS011;35290;39.550;8.786;2023-02-01T01:04:04;31.33;;;14.20;;
49416;SDS011;35290;39.550;8.786;2023-02-01T01:06:30;27.23;;;13.07;;
49416;SDS011;35290;39.550;8.786;2023-02-01T01:08:58;29.10;;;14.20;;
49416;SDS011;35290;39.550;8.786;2023-02-01T01:11:26;32.58;;;14.18;;
49416;SDS011;35290;39.550;8.786;2023-02-01T01:13:53;25.50;;;13.10;;
49416;SDS011;35290;39.550;8.786;2023-02-01T01:16:20;25.65;;;13.73;;
49416;SDS011;35290;39.550;8.786;2023-02-01T01:18:46;20.58;;;11.95;;
49416;SDS011;35290;39.550;8.786;2023-02-01T01:21:12;22.38;;;11.27;;
49416;SDS011;35290;39.550;8.786;2023-02-01T01:23:39;22.98;;;11.15;;
49416;SDS011;35290;39.550;8.786;2023-02-01T01:26:05;20.42;;;10.82;;
49416;SDS011;35290;39.550;8.786;2023-02-01T01:28:34;25.92;;;11.35;;
49416;SDS011;35290;39.550;8.786;2023-02-01T01:31:00;24.23;;;11.40;;
49416;SDS011;35290;39.550;8.786;2023-02-01T01:33:26;20.38;;;11.07;;
49416;SDS011;35290;39.550;8.786;2023-02-01T01:35:51;19.75;;;11.27;;
49416;SDS011;35290;39.550;8.786;2023-02-01T01:38:17;19.17;;;10.75;;
49416;SDS011;35290;39.550;8.786;2023-02-01T01:40:48;20.02;;;11.07;;
49416;SDS011;35290;39.550;8.786;2023-02-01T01:43:19;17.65;;;10.73;;
49416;SDS011;35290;39.550;8.786;2023-02-01T01:45:48;17.67;;;10.93;;
49416;SDS011;35290;39.550;8.786;2023-02-01T01:48:20;18.75;;;11.32;;
49416;SDS011;35290;39.550;8.786;2023-02-01T01:50:57;23.13;;;11.43;;
49416;SDS011;35290;39.550;8.786;2023-02-01T01:53:27;21.55;;;11.70;;
49416;SDS011;35290;39.550;8.786;2023-02-01T01:55:57;23.92;;;11.48;;
49416;SDS011;35290;39.550;8.786;2023-02-01T01:58:24;23.95;;;12.65;;
49416;SDS011;35290;39.550;8.786;2023-02-01T02:00:51;19.10;;;11.32;;
49416;SDS011;35290;39.550;8.786;2023-02-01T02:03:19;18.75;;;10.68;;
49416;SDS011;35290;39.550;8.786;2023-02-01T02:05:47;21.13;;;12.05;;
49416;SDS011;35290;39.550;8.786;2023-02-01T02:08:15;18.67;;;11.02;;
49416;SDS011;35290;39.550;8.786;2023-02-01T02:10:43;19.25;;;11.63;;
49416;SDS011;35290;39.550;8.786;2023-02-01T02:38:52;26.55;;;15.82;;
49416;SDS011;35290;39.550;8.786;2023-02-01T02:41:43;20.25;;;12.50;;
49416;SDS011;35290;39.550;8.786;2023-02-01T02:44:45;15.23;;;9.82;;
49416;SDS011;35290;39.550;8.786;2023-02-01T02:47:47;14.13;;;9.55;;
49416;SDS011;35290;39.550;8.786;2023-02-01T02:53:51;16.20;;;9.40;;
49416;SDS011;35290;39.550;8.786;2023-02-01T02:56:35;15.45;;;10.25;;
49416;SDS011;35290;39.550;8.786;2023-02-01T02:59:21;16.17;;;10.60;;
49416;SDS011;35290;39.550;8.786;2023-02-01T03:02:06;17.65;;;10.50;;
49416;SDS011;35290;39.550;8.786;2023-02-01T03:04:54;15.73;;;10.75;;
49416;SDS011;35290;39.550;8.786;2023-02-01T03:12:52;16.90;;;10.25;;
49416;SDS011;35290;39.550;8.786;2023-02-01T03:15:31;11.65;;;8.98;;
49416;SDS011;35290;39.550;8.786;2023-02-01T03:18:16;11.48;;;9.13;;
49416;SDS011;35290;39.550;8.786;2023-02-01T03:20:46;15.18;;;9.20;;
49416;SDS011;35290;39.550;8.786;2023-02-01T03:23:13;11.15;;;8.43;;
49416;SDS011;35290;39.550;8.786;2023-02-01T03:25:41;10.07;;;8.38;;
49416;SDS011;35290;39.550;8.786;2023-02-01T03:28:07;11.45;;;8.25;;
49416;SDS011;35290;39.550;8.786;2023-02-01T03:33:19;11.00;;;8.18;;
49416;SDS011;35290;39.550;8.786;2023-02-01T03:41:35;17.50;;;8.90;;
49416;SDS011;35290;39.550;8.786;2023-02-01T03:44:14;11.25;;;8.45;;
49416;SDS011;35290;39.550;8.786;2023-02-01T03:46:46;11.23;;;7.60;;
49416;SDS011;35290;39.550;8.786;2023-02-01T03:49:20;11.10;;;8.00;;
49416;SDS011;35290;39.550;8.786;2023-02-01T03:51:52;10.95;;;7.45;;
49416;SDS011;35290;39.550;8.786;2023-02-01T03:54:18;12.27;;;7.63;;
49416;SDS011;35290;39.550;8.786;2023-02-01T03:56:44;10.07;;;7.75;;
49416;SDS011;35290;39.550;8.786;2023-02-01T03:59:12;10.20;;;7.65;;
49416;SDS011;35290;39.550;8.786;2023-02-01T04:01:38;12.82;;;8.55;;
49416;SDS011;35290;39.550;8.786;2023-02-01T04:04:07;13.15;;;8.32;;
49416;SDS011;35290;39.550;8.786;2023-02-01T04:06:34;11.85;;;7.68;;
49416;SDS011;35290;39.550;8.786;2023-02-01T04:08:59;8.88;;;7.32;;
49416;SDS011;35290;39.550;8.786;2023-02-01T04:11:25;10.70;;;7.88;;
49416;SDS011;35290;39.550;8.786;2023-02-01T04:13:52;11.00;;;7.43;;
49416;SDS011;35290;39.550;8.786;2023-02-01T04:16:18;9.82;;;7.22;;
49416;SDS011;35290;39.550;8.786;2023-02-01T04:18:43;9.27;;;6.68;;
49416;SDS011;35290;39.550;8.786;2023-02-01T04:21:09;11.23;;;6.80;;
49416;SDS011;35290;39.550;8.786;2023-02-01T04:23:35;10.45;;;7.28;;
49416;SDS011;35290;39.550;8.786;2023-02-01T04:26:02;14.43;;;7.18;;
49416;SDS011;35290;39.550;8.786;2023-02-01T04:28:28;14.05;;;7.72;;
49416;SDS011;35290;39.550;8.786;2023-02-01T04:30:54;12.75;;;7.40;;
49416;SDS011;35290;39.550;8.786;2023-02-01T04:33:19;10.70;;;7.00;;
49416;SDS011;35290;39.550;8.786;2023-02-01T04:35:45;9.88;;;6.75;;
49416;SDS011;35290;39.550;8.786;2023-02-01T04:38:11;10.23;;;6.60;;
49416;SDS011;35290;39.550;8.786;2023-02-01T04:40:37;10.55;;;7.22;;
49416;SDS011;35290;39.550;8.786;2023-02-01T04:43:03;11.18;;;7.43;;
49416;SDS011;35290;39.550;8.786;2023-02-01T04:45:29;14.05;;;8.20;;
49416;SDS011;35290;39.550;8.786;2023-02-01T04:47:54;14.93;;;8.32;;
49416;SDS011;35290;39.550;8.786;2023-02-01T04:50:20;11.55;;;7.55;;
49416;SDS011;35290;39.550;8.786;2023-02-01T04:52:46;12.90;;;7.97;;
49416;SDS011;35290;39.550;8.786;2023-02-01T04:55:11;10.93;;;8.05;;
49416;SDS011;35290;39.550;8.786;2023-02-01T04:57:39;13.02;;;8.30;;
49416;SDS011;35290;39.550;8.786;2023-02-01T05:00:08;19.50;;;9.48;;
49416;SDS011;35290;39.550;8.786;2023-02-01T05:02:34;16.98;;;10.00;;
49416;SDS011;35290;39.550;8.786;2023-02-01T05:05:00;17.27;;;9.57;;
49416;SDS011;35290;39.550;8.786;2023-02-01T05:07:25;14.48;;;8.63;;
49416;SDS011;35290;39.550;8.786;2023-02-01T05:09:51;13.90;;;7.72;;
49416;SDS011;35290;39.550;8.786;2023-02-01T05:12:17;16.83;;;8.10;;
49416;SDS011;35290;39.550;8.786;2023-02-01T05:15:01;15.32;;;7.90;;
49416;SDS011;35290;39.550;8.786;2023-02-01T05:17:27;11.40;;;7.35;;
49416;SDS011;35290;39.550;8.786;2023-02-01T05:19:52;9.85;;;7.22;;
49416;SDS011;35290;39.550;8.786;2023-02-01T05:22:18;13.73;;;7.82;;
49416;SDS011;35290;39.550;8.786;2023-02-01T05:24:44;13.32;;;7.10;;
49416;SDS011;35290;39.550;8.786;2023-02-01T05:27:10;15.57;;;7.63;;
49416;SDS011;35290;39.550;8.786;2023-02-01T05:29:35;13.75;;;7.75;;
49416;SDS011;35290;39.550;8.786;2023-02-01T05:32:01;11.63;;;7.25;;
49416;SDS011;35290;39.550;8.786;2023-02-01T05:34:27;12.40;;;8.20;;
49416;SDS011;35290;39.550;8.786;2023-02-01T05:36:52;17.13;;;8.95;;
49416;SDS011;35290;39.550;8.786;2023-02-01T05:39:18;16.77;;;9.55;;
49416;SDS011;35290;39.550;8.786;2023-02-01T05:41:44;23.48;;;13.50;;
49416;SDS011;35290;39.550;8.786;2023-02-01T05:44:10;19.60;;;12.80;;
49416;SDS011;35290;39.550;8.786;2023-02-01T05:46:36;24.15;;;14.80;;
49416;SDS011;35290;39.550;8.786;2023-02-01T05:49:01;24.00;;;15.15;;
49416;SDS011;35290;39.550;8.786;2023-02-01T05:51:27;23.17;;;13.93;;
49416;SDS011;35290;39.550;8.786;2023-02-01T05:53:53;22.05;;;12.32;;
49416;SDS011;35290;39.550;8.786;2023-02-01T05:56:18;20.67;;;12.10;;
49416;SDS011;35290;39.550;8.786;2023-02-01T05:58:44;22.20;;;12.40;;
49416;SDS011;35290;39.550;8.786;2023-02-01T06:01:10;18.13;;;12.43;;
49416;SDS011;35290;39.550;8.786;2023-02-01T06:03:35;25.88;;;13.10;;
49416;SDS011;35290;39.550;8.786;2023-02-01T06:06:01;23.08;;;13.68;;
49416;SDS011;35290;39.550;8.786;2023-02-01T06:08:27;22.10;;;14.38;;
49416;SDS011;35290;39.550;8.786;2023-02-01T06:11:03;20.75;;;13.85;;
49416;SDS011;35290;39.550;8.786;2023-02-01T06:13:29;24.40;;;13.90;;
49416;SDS011;35290;39.550;8.786;2023-02-01T06:15:55;29.10;;;16.00;;
49416;SDS011;35290;39.550;8.786;2023-02-01T06:18:24;32.15;;;18.38;;
49416;SDS011;35290;39.550;8.786;2023-02-01T06:20:54;32.28;;;18.35;;
49416;SDS011;35290;39.550;8.786;2023-02-01T06:23:20;28.45;;;17.33;;
49416;SDS011;35290;39.550;8.786;2023-02-01T06:25:49;22.00;;;15.27;;
49416;SDS011;35290;39.550;8.786;2023-02-01T06:28:18;28.60;;;15.77;;
49416;SDS011;35290;39.550;8.786;2023-02-01T06:30:44;28.98;;;14.35;;
49416;SDS011;35290;39.550;8.786;2023-02-01T06:33:12;19.70;;;13.65;;
49416;SDS011;35290;39.550;8.786;2023-02-01T06:35:40;24.25;;;14.73;;
49416;SDS011;35290;39.550;8.786;2023-02-01T06:38:07;31.02;;;17.08;;
49416;SDS011;35290;39.550;8.786;2023-02-01T06:40:33;30.88;;;19.80;;
49416;SDS011;35290;39.550;8.786;2023-02-01T06:42:58;30.50;;;20.83;;
49416;SDS011;35290;39.550;8.786;2023-02-01T06:45:24;42.97;;;26.75;;
49416;SDS011;35290;39.550;8.786;2023-02-01T06:47:50;45.75;;;28.50;;
49416;SDS011;35290;39.550;8.786;2023-02-01T06:50:15;43.80;;;29.98;;
49416;SDS011;35290;39.550;8.786;2023-02-01T06:52:41;47.50;;;31.23;;
49416;SDS011;35290;39.550;8.786;2023-02-01T06:55:07;62.15;;;38.33;;
49416;SDS011;35290;39.550;8.786;2023-02-01T06:57:35;60.70;;;37.42;;
49416;SDS011;35290;39.550;8.786;2023-02-01T07:00:01;63.55;;;37.00;;
49416;SDS011;35290;39.550;8.786;2023-02-01T07:02:28;58.75;;;38.42;;
49416;SDS011;35290;39.550;8.786;2023-02-01T07:04:53;69.57;;;41.25;;
49416;SDS011;35290;39.550;8.786;2023-02-01T07:07:19;69.13;;;42.08;;
49416;SDS011;35290;39.550;8.786;2023-02-01T07:09:49;69.78;;;44.00;;
49416;SDS011;35290;39.550;8.786;2023-02-01T07:12:18;68.43;;;45.03;;
49416;SDS011;35290;39.550;8.786;2023-02-01T07:14:44;104.15;;;64.20;;
49416;SDS011;35290;39.550;8.786;2023-02-01T07:17:09;130.32;;;85.25;;
49416;SDS011;35290;39.550;8.786;2023-02-01T07:19:38;109.18;;;68.95;;
49416;SDS011;35290;39.550;8.786;2023-02-01T07:22:03;118.03;;;76.07;;
49416;SDS011;35290;39.550;8.786;2023-02-01T07:24:29;115.35;;;69.82;;
49416;SDS011;35290;39.550;8.786;2023-02-01T07:26:56;117.05;;;71.78;;
49416;SDS011;35290;39.550;8.786;2023-02-01T07:29:22;114.03;;;72.90;;
49416;SDS011;35290;39.550;8.786;2023-02-01T07:32:05;124.57;;;75.28;;
49416;SDS011;35290;39.550;8.786;2023-02-01T07:34:30;101.57;;;65.47;;
49416;SDS011;35290;39.550;8.786;2023-02-01T07:36:56;96.65;;;59.78;;
49416;SDS011;35290;39.550;8.786;2023-02-01T07:39:21;84.20;;;51.78;;
49416;SDS011;35290;39.550;8.786;2023-02-01T07:41:47;81.70;;;48.30;;
49416;SDS011;35290;39.550;8.786;2023-02-01T07:44:13;81.78;;;47.05;;
49416;SDS011;35290;39.550;8.786;2023-02-01T07:46:38;71.82;;;42.28;;
49416;SDS011;35290;39.550;8.786;2023-02-01T07:49:04;68.22;;;42.80;;
49416;SDS011;35290;39.550;8.786;2023-02-01T07:51:30;73.55;;;43.75;;
49416;SDS011;35290;39.550;8.786;2023-02-01T07:53:56;62.78;;;38.88;;
49416;SDS011;35290;39.550;8.786;2023-02-01T07:56:22;75.47;;;44.72;;
49416;SDS011;35290;39.550;8.786;2023-02-01T07:58:51;70.70;;;43.42;;
49416;SDS011;35290;39.550;8.786;2023-02-01T08:01:24;62.75;;;39.10;;
49416;SDS011;35290;39.550;8.786;2023-02-01T08:03:51;60.78;;;38.15;;
49416;SDS011;35290;39.550;8.786;2023-02-01T08:06:18;59.53;;;37.85;;
49416;SDS011;35290;39.550;8.786;2023-02-01T08:08:47;69.03;;;39.38;;
49416;SDS011;35290;39.550;8.786;2023-02-01T08:11:14;65.47;;;39.60;;
49416;SDS011;35290;39.550;8.786;2023-02-01T08:13:42;71.55;;;40.42;;
49416;SDS011;35290;39.550;8.786;2023-02-01T08:16:08;68.45;;;39.75;;
49416;SDS011;35290;39.550;8.786;2023-02-01T08:18:35;67.70;;;38.80;;
49416;SDS011;35290;39.550;8.786;2023-02-01T08:21:06;52.65;;;31.20;;
49416;SDS011;35290;39.550;8.786;2023-02-01T08:23:34;55.47;;;31.23;;
49416;SDS011;35290;39.550;8.786;2023-02-01T08:26:19;53.30;;;28.52;;
49416;SDS011;35290;39.550;8.786;2023-02-01T08:28:49;43.90;;;26.90;;
49416;SDS011;35290;39.550;8.786;2023-02-01T08:31:22;37.58;;;19.55;;
49416;SDS011;35290;39.550;8.786;2023-02-01T08:33:52;40.97;;;21.17;;
49416;SDS011;35290;39.550;8.786;2023-02-01T08:36:22;33.55;;;20.30;;
49416;SDS011;35290;39.550;8.786;2023-02-01T08:38:48;35.55;;;22.02;;
49416;SDS011;35290;39.550;8.786;2023-02-01T08:41:16;50.08;;;26.50;;
49416;SDS011;35290;39.550;8.786;2023-02-01T08:43:47;52.38;;;25.92;;
49416;SDS011;35290;39.550;8.786;2023-02-01T08:46:13;42.28;;;25.48;;
49416;SDS011;35290;39.550;8.786;2023-02-01T08:48:39;50.67;;;30.25;;
49416;SDS011;35290;39.550;8.786;2023-02-01T08:51:06;46.92;;;24.17;;
49416;SDS011;35290;39.550;8.786;2023-02-01T08:53:34;55.70;;;25.35;;
49416;SDS011;35290;39.550;8.786;2023-02-01T08:56:01;47.55;;;23.77;;
49416;SDS011;35290;39.550;8.786;2023-02-01T08:58:27;44.70;;;21.98;;
49416;SDS011;35290;39.550;8.786;2023-02-01T09:00:52;56.35;;;25.48;;
49416;SDS011;35290;39.550;8.786;2023-02-01T09:03:18;99.70;;;48.90;;
49416;SDS011;35290;39.550;8.786;2023-02-01T09:05:44;64.05;;;29.35;;
49416;SDS011;35290;39.550;8.786;2023-02-01T09:08:10;55.60;;;29.48;;
49416;SDS011;35290;39.550;8.786;2023-02-01T09:10:41;52.60;;;30.65;;
49416;SDS011;35290;39.550;8.786;2023-02-01T09:13:07;54.63;;;30.13;;
49416;SDS011;35290;39.550;8.786;2023-02-01T09:15:33;60.97;;;31.98;;
49416;SDS011;35290;39.550;8.786;2023-02-01T09:17:59;57.13;;;32.30;;
49416;SDS011;35290;39.550;8.786;2023-02-01T09:20:28;57.45;;;34.38;;
49416;SDS011;35290;39.550;8.786;2023-02-01T09:22:55;64.78;;;36.90;;
49416;SDS011;35290;39.550;8.786;2023-02-01T09:25:20;71.03;;;42.58;;
49416;SDS011;35290;39.550;8.786;2023-02-01T09:27:46;77.28;;;46.38;;
49416;SDS011;35290;39.550;8.786;2023-02-01T09:30:11;86.22;;;47.80;;
49416;SDS011;35290;39.550;8.786;2023-02-01T09:32:37;80.10;;;44.67;;
49416;SDS011;35290;39.550;8.786;2023-02-01T09:35:03;63.92;;;37.40;;
49416;SDS011;35290;39.550;8.786;2023-02-01T09:37:28;59.90;;;34.13;;
49416;SDS011;35290;39.550;8.786;2023-02-01T09:39:54;45.25;;;25.75;;
49416;SDS011;35290;39.550;8.786;2023-02-01T09:47:55;28.85;;;12.82;;
49416;SDS011;35290;39.550;8.786;2023-02-01T09:50:28;32.20;;;13.70;;
49416;SDS011;35290;39.550;8.786;2023-02-01T09:53:00;27.92;;;15.10;;
49416;SDS011;35290;39.550;8.786;2023-02-01T09:55:45;34.50;;;14.88;;
49416;SDS011;35290;39.550;8.786;2023-02-01T10:00:38;30.70;;;16.00;;
49416;SDS011;35290;39.550;8.786;2023-02-01T10:03:04;33.67;;;16.42;;
49416;SDS011;35290;39.550;8.786;2023-02-01T10:10:36;34.25;;;17.00;;
49416;SDS011;35290;39.550;8.786;2023-02-01T10:16:06;33.95;;;17.63;;
49416;SDS011;35290;39.550;8.786;2023-02-01T10:27:13;41.20;;;19.58;;
49416;SDS011;35290;39.550;8.786;2023-02-01T10:29:43;37.50;;;18.98;;
49416;SDS011;35290;39.550;8.786;2023-02-01T10:32:20;37.22;;;20.75;;
49416;SDS011;35290;39.550;8.786;2023-02-01T10:34:50;38.95;;;19.98;;
49416;SDS011;35290;39.550;8.786;2023-02-01T10:40:21;37.93;;;19.37;;
49416;SDS011;35290;39.550;8.786;2023-02-01T10:42:49;29.00;;;15.02;;
49416;SDS011;35290;39.550;8.786;2023-02-01T10:45:19;23.95;;;13.57;;
49416;SDS011;35290;39.550;8.786;2023-02-01T10:47:50;23.63;;;13.35;;
49416;SDS011;35290;39.550;8.786;2023-02-01T10:50:38;28.70;;;12.57;;
49416;SDS011;35290;39.550;8.786;2023-02-01T10:53:10;17.65;;;9.50;;
49416;SDS011;35290;39.550;8.786;2023-02-01T10:58:06;15.60;;;7.82;;
49416;SDS011;35290;39.550;8.786;2023-02-01T11:00:41;14.23;;;6.32;;
49416;SDS011;35290;39.550;8.786;2023-02-01T11:06:01;14.57;;;5.18;;
49416;SDS011;35290;39.550;8.786;2023-02-01T11:08:28;15.43;;;5.53;;
49416;SDS011;35290;39.550;8.786;2023-02-01T11:10:59;12.95;;;5.05;;
49416;SDS011;35290;39.550;8.786;2023-02-01T11:13:30;12.82;;;4.82;;
49416;SDS011;35290;39.550;8.786;2023-02-01T11:16:02;12.65;;;4.20;;
49416;SDS011;35290;39.550;8.786;2023-02-01T11:18:30;11.07;;;4.10;;
49416;SDS011;35290;39.550;8.786;2023-02-01T11:21:01;9.40;;;3.63;;
49416;SDS011;35290;39.550;8.786;2023-02-01T11:23:27;10.18;;;3.00;;
49416;SDS011;35290;39.550;8.786;2023-02-01T11:25:59;12.25;;;4.95;;
49416;SDS011;35290;39.550;8.786;2023-02-01T11:28:28;12.23;;;5.00;;
49416;SDS011;35290;39.550;8.786;2023-02-01T11:30:58;12.48;;;5.50;;
49416;SDS011;35290;39.550;8.786;2023-02-01T11:33:29;15.48;;;5.80;;
49416;SDS011;35290;39.550;8.786;2023-02-01T11:36:00;10.70;;;3.92;;
49416;SDS011;35290;39.550;8.786;2023-02-01T11:38:32;12.03;;;4.97;;
49416;SDS011;35290;39.550;8.786;2023-02-01T11:41:11;10.52;;;4.93;;
49416;SDS011;35290;39.550;8.786;2023-02-01T11:43:52;11.18;;;4.82;;
49416;SDS011;35290;39.550;8.786;2023-02-01T11:46:34;22.42;;;5.15;;
49416;SDS011;35290;39.550;8.786;2023-02-01T11:49:33;12.82;;;5.40;;
49416;SDS011;35290;39.550;8.786;2023-02-01T11:54:46;15.80;;;7.15;;
49416;SDS011;35290;39.550;8.786;2023-02-01T11:57:40;19.67;;;9.48;;
49416;SDS011;35290;39.550;8.786;2023-02-01T12:05:58;101.60;;;54.25;;
49416;SDS011;35290;39.550;8.786;2023-02-01T12:24:45;21.63;;;7.88;;
49416;SDS011;35290;39.550;8.786;2023-02-01T12:41:56;12.25;;;4.30;;
49416;SDS011;35290;39.550;8.786;2023-02-01T12:47:27;16.92;;;6.60;;
49416;SDS011;35290;39.550;8.786;2023-02-01T12:52:40;13.98;;;6.50;;
49416;SDS011;35290;39.550;8.786;2023-02-01T12:58:07;18.45;;;7.72;;
49416;SDS011;35290;39.550;8.786;2023-02-01T13:00:52;17.10;;;9.38;;
49416;SDS011;35290;39.550;8.786;2023-02-01T13:03:42;15.57;;;7.15;;
49416;SDS011;35290;39.550;8.786;2023-02-01T13:06:26;17.90;;;6.82;;
49416;SDS011;35290;39.550;8.786;2023-02-01T13:11:44;14.30;;;6.13;;
49416;SDS011;35290;39.550;8.786;2023-02-01T13:17:02;25.80;;;15.60;;
49416;SDS011;35290;39.550;8.786;2023-02-01T13:22:21;13.68;;;5.90;;
49416;SDS011;35290;39.550;8.786;2023-02-01T13:24:57;13.82;;;5.55;;
49416;SDS011;35290;39.550;8.786;2023-02-01T13:27:28;12.80;;;5.07;;
49416;SDS011;35290;39.550;8.786;2023-02-01T13:43:40;11.30;;;3.35;;
49416;SDS011;35290;39.550;8.786;2023-02-01T13:46:09;16.55;;;6.13;;
49416;SDS011;35290;39.550;8.786;2023-02-01T13:49:01;11.95;;;4.60;;
49416;SDS011;35290;39.550;8.786;2023-02-01T13:51:33;11.38;;;5.00;;
49416;SDS011;35290;39.550;8.786;2023-02-01T13:57:04;17.73;;;4.45;;
49416;SDS011;35290;39.550;8.786;2023-02-01T14:13:41;17.02;;;3.30;;
49416;SDS011;35290;39.550;8.786;2023-02-01T14:16:23;11.00;;;4.05;;
49416;SDS011;35290;39.550;8.786;2023-02-01T14:18:58;11.02;;;4.35;;
49416;SDS011;35290;39.550;8.786;2023-02-01T14:24:24;16.77;;;6.40;;
49416;SDS011;35290;39.550;8.786;2023-02-01T14:27:18;21.38;;;10.45;;
49416;SDS011;35290;39.550;8.786;2023-02-01T14:30:11;124.97;;;60.85;;
49416;SDS011;35290;39.550;8.786;2023-02-01T14:32:44;120.80;;;58.25;;
49416;SDS011;35290;39.550;8.786;2023-02-01T14:35:44;32.90;;;15.38;;
49416;SDS011;35290;39.550;8.786;2023-02-01T14:39:04;60.00;;;30.63;;
49416;SDS011;35290;39.550;8.786;2023-02-01T14:41:47;33.00;;;16.73;;
49416;SDS011;35290;39.550;8.786;2023-02-01T14:50:57;28.35;;;14.93;;
49416;SDS011;35290;39.550;8.786;2023-02-01T14:53:27;44.70;;;23.40;;
49416;SDS011;35290;39.550;8.786;2023-02-01T14:56:32;23.20;;;9.90;;
49416;SDS011;35290;39.550;8.786;2023-02-01T14:59:33;20.92;;;10.50;;
49416;SDS011;35290;39.550;8.786;2023-02-01T15:02:02;14.30;;;6.22;;
49416;SDS011;35290;39.550;8.786;2023-02-01T15:05:20;15.95;;;6.70;;
49416;SDS011;35290;39.550;8.786;2023-02-01T15:08:20;13.93;;;5.95;;
49416;SDS011;35290;39.550;8.786;2023-02-01T15:14:12;13.68;;;5.70;;
49416;SDS011;35290;39.550;8.786;2023-02-01T15:17:00;11.68;;;4.80;;
49416;SDS011;35290;39.550;8.786;2023-02-01T15:23:15;26.67;;;14.70;;
49416;SDS011;35290;39.550;8.786;2023-02-01T15:26:05;15.50;;;7.60;;
49416;SDS011;35290;39.550;8.786;2023-02-01T15:28:43;17.35;;;7.50;;
49416;SDS011;35290;39.550;8.786;2023-02-01T15:34:46;18.92;;;7.70;;
49416;SDS011;35290;39.550;8.786;2023-02-01T15:38:00;15.35;;;7.05;;
49416;SDS011;35290;39.550;8.786;2023-02-01T15:46:44;18.02;;;6.93;;
49416;SDS011;35290;39.550;8.786;2023-02-01T15:49:46;16.60;;;7.05;;
49416;SDS011;35290;39.550;8.786;2023-02-01T15:52:39;20.05;;;7.78;;
49416;SDS011;35290;39.550;8.786;2023-02-01T15:55:08;13.25;;;5.35;;
49416;SDS011;35290;39.550;8.786;2023-02-01T15:58:09;15.55;;;5.30;;
49416;SDS011;35290;39.550;8.786;2023-02-01T16:00:44;17.60;;;6.72;;
49416;SDS011;35290;39.550;8.786;2023-02-01T16:06:04;18.98;;;8.23;;
49416;SDS011;35290;39.550;8.786;2023-02-01T16:09:02;18.58;;;7.43;;
49416;SDS011;35290;39.550;8.786;2023-02-01T16:11:57;17.30;;;7.32;;
49416;SDS011;35290;39.550;8.786;2023-02-01T16:14:31;18.83;;;6.05;;
49416;SDS011;35290;39.550;8.786;2023-02-01T16:17:08;19.35;;;5.85;;
49416;SDS011;35290;39.550;8.786;2023-02-01T16:19:36;16.23;;;4.97;;
49416;SDS011;35290;39.550;8.786;2023-02-01T16:22:04;18.35;;;5.70;;
49416;SDS011;35290;39.550;8.786;2023-02-01T16:24:32;13.93;;;4.90;;
49416;SDS011;35290;39.550;8.786;2023-02-01T16:27:06;16.60;;;5.40;;
49416;SDS011;35290;39.550;8.786;2023-02-01T16:29:32;30.58;;;7.88;;
49416;SDS011;35290;39.550;8.786;2023-02-01T16:32:00;19.98;;;7.72;;
49416;SDS011;35290;39.550;8.786;2023-02-01T16:34:28;24.52;;;6.80;;
49416;SDS011;35290;39.550;8.786;2023-02-01T16:36:54;21.67;;;6.68;;
49416;SDS011;35290;39.550;8.786;2023-02-01T16:39:22;18.27;;;5.63;;
49416;SDS011;35290;39.550;8.786;2023-02-01T16:41:48;13.82;;;5.85;;
49416;SDS011;35290;39.550;8.786;2023-02-01T16:44:33;21.17;;;6.85;;
49416;SDS011;35290;39.550;8.786;2023-02-01T16:46:58;19.50;;;8.20;;
49416;SDS011;35290;39.550;8.786;2023-02-01T16:49:24;16.00;;;5.55;;
49416;SDS011;35290;39.550;8.786;2023-02-01T16:51:55;18.13;;;5.57;;
49416;SDS011;35290;39.550;8.786;2023-02-01T17:06:56;24.98;;;7.63;;
49416;SDS011;35290;39.550;8.786;2023-02-01T17:09:23;27.02;;;5.40;;
49416;SDS011;35290;39.550;8.786;2023-02-01T17:11:50;18.85;;;5.35;;
49416;SDS011;35290;39.550;8.786;2023-02-01T17:14:17;16.80;;;4.47;;
49416;SDS011;35290;39.550;8.786;2023-02-01T17:16:44;15.18;;;3.75;;
49416;SDS011;35290;39.550;8.786;2023-02-01T17:19:14;20.80;;;5.97;;
49416;SDS011;35290;39.550;8.786;2023-02-01T17:21:45;17.77;;;5.35;;
49416;SDS011;35290;39.550;8.786;2023-02-01T17:24:18;20.80;;;5.72;;
49416;SDS011;35290;39.550;8.786;2023-02-01T17:30:26;18.65;;;3.72;;
49416;SDS011;35290;39.550;8.786;2023-02-01T17:33:31;24.20;;;5.78;;
49416;SDS011;35290;39.550;8.786;2023-02-01T18:24:42;20.50;;;5.97;;
49416;SDS011;35290;39.550;8.786;2023-02-01T19:26:55;33.30;;;14.40;;
49416;SDS011;35290;39.550;8.786;2023-02-01T20:02:28;27.70;;;13.82;;
49416;SDS011;35290;39.550;8.786;2023-02-01T20:41:10;26.20;;;9.25;;
49416;SDS011;35290;39.550;8.786;2023-02-01T20:43:35;40.85;;;18.08;;
49416;SDS011;35290;39.550;8.786;2023-02-01T20:46:01;53.65;;;24.90;;
49416;SDS011;35290;39.550;8.786;2023-02-01T20:48:28;90.38;;;54.78;;
49416;SDS011;35290;39.550;8.786;2023-02-01T20:50:55;84.30;;;48.40;;
49416;SDS011;35290;39.550;8.786;2023-02-01T20:53:21;67.82;;;41.63;;
49416;SDS011;35290;39.550;8.786;2023-02-01T20:55:51;55.47;;;35.30;;
49416;SDS011;35290;39.550;8.786;2023-02-01T20:58:20;46.10;;;26.08;;
49416;SDS011;35290;39.550;8.786;2023-02-01T21:00:49;29.05;;;14.63;;
49416;SDS011;35290;39.550;8.786;2023-02-01T21:03:15;31.50;;;15.40;;
49416;SDS011;35290;39.550;8.786;2023-02-01T21:05:50;32.33;;;12.68;;
49416;SDS011;35290;39.550;8.786;2023-02-01T21:08:17;21.90;;;10.38;;
49416;SDS011;35290;39.550;8.786;2023-02-01T21:13:42;19.02;;;9.32;;
49416;SDS011;35290;39.550;8.786;2023-02-01T21:16:17;29.90;;;13.35;;